sensor_id;sensor_type;location;lat;lon;timestamp;pressure;altitude;pressure_sealevel;temperature;humidity
10658;BME280;5377;43.276;26.930;2022-09-09T00:41:09;99233.06;;;18.69;91.35
10658;BME280;5377;43.276;26.930;2022-09-09T05:51:55;99200.47;;;20.14;75.19
10658;BME280;5377;43.276;26.930;2022-09-09T05:54:22;99091.94;;;19.60;73.79
10658;BME280;5377;43.276;26.930;2022-09-09T05:56:49;99194.81;;;20.26;72.30
10658;BME280;5377;43.276;26.930;2022-09-09T05:59:18;99183.91;;;20.21;71.36
10658;BME280;5377;43.276;26.930;2022-09-09T06:01:45;99177.69;;;20.31;71.17
10658;BME280;5377;43.276;26.930;2022-09-09T06:04:12;99176.41;;;20.43;70.66
10658;BME280;5377;43.276;26.930;2022-09-09T06:06:39;99187.34;;;20.48;70.80
10658;BME280;5377;43.276;26.930;2022-09-09T06:09:09;99200.75;;;20.70;69.96
10658;BME280;5377;43.276;26.930;2022-09-09T06:11:38;99211.88;;;20.64;69.08
10658;BME280;5377;43.276;26.930;2022-09-09T06:14:05;99186.31;;;20.70;69.48
10658;BME280;5377;43.276;26.930;2022-09-09T06:16:33;99185.56;;;20.90;67.94
10658;BME280;5377;43.276;26.930;2022-09-09T06:19:00;99183.41;;;20.97;67.23
10658;BME280;5377;43.276;26.930;2022-09-09T06:21:30;99185.31;;;21.01;66.86
10658;BME280;5377;43.276;26.930;2022-09-09T06:23:58;99196.25;;;21.22;66.84
10658;BME280;5377;43.276;26.930;2022-09-09T06:26:27;99113.16;;;20.89;65.84
10658;BME280;5377;43.276;26.930;2022-09-09T06:28:55;99197.09;;;21.32;66.49
10658;BME280;5377;43.276;26.930;2022-09-09T06:31:25;99189.22;;;21.56;66.61
10658;BME280;5377;43.276;26.930;2022-09-09T06:33:53;99177.22;;;21.67;65.51
10658;BME280;5377;43.276;26.930;2022-09-09T06:36:21;99176.38;;;21.82;65.96
10658;BME280;5377;43.276;26.930;2022-09-09T06:38:48;99181.25;;;22.00;65.41
10658;BME280;5377;43.276;26.930;2022-09-09T06:41:17;99187.78;;;22.25;63.84
10658;BME280;5377;43.276;26.930;2022-09-09T06:43:46;99176.00;;;22.34;62.39
10658;BME280;5377;43.276;26.930;2022-09-09T06:46:15;99077.16;;;21.73;60.98
10658;BME280;5377;43.276;26.930;2022-09-09T06:48:44;99077.97;;;21.73;59.38
10658;BME280;5377;43.276;26.930;2022-09-09T07:50:12;99138.16;;;26.10;41.96
10658;BME280;5377;43.276;26.930;2022-09-09T07:56:04;99141.94;;;26.41;40.47
10658;BME280;5377;43.276;26.930;2022-09-09T08:01:53;99136.31;;;27.10;39.62
10658;BME280;5377;43.276;26.930;2022-09-09T08:04:21;99124.94;;;27.48;38.87
10658;BME280;5377;43.276;26.930;2022-09-09T08:06:52;99108.25;;;27.75;38.36
10658;BME280;5377;43.276;26.930;2022-09-09T08:09:31;99110.13;;;27.88;37.94
10658;BME280;5377;43.276;26.930;2022-09-09T08:15:21;99102.06;;;28.40;37.17
10658;BME280;5377;43.276;26.930;2022-09-09T08:17:47;99098.69;;;28.78;37.29
10658;BME280;5377;43.276;26.930;2022-09-09T08:20:14;99097.88;;;28.60;37.24
10658;BME280;5377;43.276;26.930;2022-09-09T08:26:10;99104.44;;;28.90;36.67
10658;BME280;5377;43.276;26.930;2022-09-09T08:32:00;99092.19;;;29.60;36.13
10658;BME280;5377;43.276;26.930;2022-09-09T08:34:27;99100.78;;;29.59;35.63
10658;BME280;5377;43.276;26.930;2022-09-09T08:36:55;99104.59;;;28.94;36.33
10658;BME280;5377;43.276;26.930;2022-09-09T08:39:22;99101.47;;;29.30;36.21
10658;BME280;5377;43.276;26.930;2022-09-09T08:42:00;99108.31;;;28.98;36.66
10658;BME280;5377;43.276;26.930;2022-09-09T08:44:41;99085.88;;;28.47;37.71
10658;BME280;5377;43.276;26.930;2022-09-09T08:47:20;99109.75;;;29.04;37.27
10658;BME280;5377;43.276;26.930;2022-09-09T08:50:05;99038.88;;;29.04;36.70
10658;BME280;5377;43.276;26.930;2022-09-09T08:52:44;99083.09;;;29.42;36.58
10658;BME280;5377;43.276;26.930;2022-09-09T08:55:22;99102.09;;;29.61;36.48
10658;BME280;5377;43.276;26.930;2022-09-09T08:57:54;99104.06;;;29.52;36.52
10658;BME280;5377;43.276;26.930;2022-09-09T09:00:32;99087.59;;;29.73;36.63
10658;BME280;5377;43.276;26.930;2022-09-09T09:07:09;99106.53;;;29.92;35.70
10658;BME280;5377;43.276;26.930;2022-09-09T09:09:46;99101.75;;;30.09;36.00
10658;BME280;5377;43.276;26.930;2022-09-09T09:12:51;99074.81;;;29.98;35.81
10658;BME280;5377;43.276;26.930;2022-09-09T09:15:23;99053.72;;;29.93;35.47
10658;BME280;5377;43.276;26.930;2022-09-09T09:17:51;99035.41;;;29.89;35.47
10658;BME280;5377;43.276;26.930;2022-09-09T09:20:23;99082.84;;;29.82;36.42
10658;BME280;5377;43.276;26.930;2022-09-09T09:22:57;99056.00;;;29.91;35.60
10658;BME280;5377;43.276;26.930;2022-09-09T09:25:32;99059.38;;;30.35;35.65
10658;BME280;5377;43.276;26.930;2022-09-09T09:35:27;99068.66;;;30.30;35.28
10658;BME280;5377;43.276;26.930;2022-09-09T09:52:17;99048.69;;;30.75;34.48
10658;BME280;5377;43.276;26.930;2022-09-09T10:08:27;99047.72;;;29.91;35.61
10658;BME280;5377;43.276;26.930;2022-09-09T10:21:41;99055.13;;;30.58;34.37
10658;BME280;5377;43.276;26.930;2022-09-09T10:24:34;99062.25;;;30.68;34.06
10658;BME280;5377;43.276;26.930;2022-09-09T10:27:14;99035.47;;;30.60;33.97
10658;BME280;5377;43.276;26.930;2022-09-09T10:33:20;99055.81;;;30.05;34.49
10658;BME280;5377;43.276;26.930;2022-09-09T10:35:56;99075.59;;;30.66;34.08
10658;BME280;5377;43.276;26.930;2022-09-09T10:38:30;99039.06;;;30.60;33.84
10658;BME280;5377;43.276;26.930;2022-09-09T10:41:11;99041.22;;;30.25;34.60
10658;BME280;5377;43.276;26.930;2022-09-09T10:47:24;99032.03;;;30.13;34.62
10658;BME280;5377;43.276;26.930;2022-09-09T11:00:35;99020.47;;;30.40;33.89
10658;BME280;5377;43.276;26.930;2022-09-09T11:03:55;99028.84;;;31.27;32.72
10658;BME280;5377;43.276;26.930;2022-09-09T11:06:28;99015.88;;;31.64;32.26
10658;BME280;5377;43.276;26.930;2022-09-09T11:08:59;99021.94;;;31.33;32.25
10658;BME280;5377;43.276;26.930;2022-09-09T11:11:32;99006.97;;;31.13;32.38
10658;BME280;5377;43.276;26.930;2022-09-09T11:14:03;99023.34;;;31.51;32.20
10658;BME280;5377;43.276;26.930;2022-09-09T11:16:41;99018.66;;;31.64;32.49
10658;BME280;5377;43.276;26.930;2022-09-09T11:19:16;99028.88;;;31.39;32.58
10658;BME280;5377;43.276;26.930;2022-09-09T11:21:48;99019.84;;;30.97;32.93
10658;BME280;5377;43.276;26.930;2022-09-09T11:24:28;99026.31;;;31.01;33.29
10658;BME280;5377;43.276;26.930;2022-09-09T11:30:42;98983.31;;;31.37;32.73
10658;BME280;5377;43.276;26.930;2022-09-09T11:37:29;99007.72;;;31.80;32.69
10658;BME280;5377;43.276;26.930;2022-09-09T11:40:19;98993.63;;;31.97;32.57
10658;BME280;5377;43.276;26.930;2022-09-09T11:42:47;98995.59;;;31.97;32.29
10658;BME280;5377;43.276;26.930;2022-09-09T11:45:23;98998.41;;;32.24;31.79
10658;BME280;5377;43.276;26.930;2022-09-09T11:47:59;98991.34;;;32.51;31.19
10658;BME280;5377;43.276;26.930;2022-09-09T11:53:57;98990.63;;;32.67;30.91
10658;BME280;5377;43.276;26.930;2022-09-09T12:07:00;98957.03;;;32.04;31.29
10658;BME280;5377;43.276;26.930;2022-09-09T12:12:51;98964.59;;;32.71;30.15
10658;BME280;5377;43.276;26.930;2022-09-09T12:25:35;98935.97;;;32.15;29.84
10658;BME280;5377;43.276;26.930;2022-09-09T12:28:11;98942.81;;;32.85;29.52
10658;BME280;5377;43.276;26.930;2022-09-09T12:30:48;98954.69;;;32.58;29.67
10658;BME280;5377;43.276;26.930;2022-09-09T12:33:18;98965.41;;;33.00;29.17
10658;BME280;5377;43.276;26.930;2022-09-09T12:35:51;98950.34;;;32.73;29.53
10658;BME280;5377;43.276;26.930;2022-09-09T12:38:26;98952.06;;;32.77;29.06
10658;BME280;5377;43.276;26.930;2022-09-09T12:40:57;98937.84;;;32.51;29.41
10658;BME280;5377;43.276;26.930;2022-09-09T12:43:27;98945.06;;;32.96;29.31
10658;BME280;5377;43.276;26.930;2022-09-09T12:45:57;98938.00;;;33.14;28.89
10658;BME280;5377;43.276;26.930;2022-09-09T12:48:31;98940.28;;;32.80;29.08
10658;BME280;5377;43.276;26.930;2022-09-09T12:50:59;98927.53;;;32.64;29.51
10658;BME280;5377;43.276;26.930;2022-09-09T12:53:30;98921.72;;;33.60;28.62
10658;BME280;5377;43.276;26.930;2022-09-09T12:56:01;98902.91;;;33.69;27.97
10658;BME280;5377;43.276;26.930;2022-09-09T12:58:31;98919.91;;;33.83;28.49
10658;BME280;5377;43.276;26.930;2022-09-09T13:01:01;98876.47;;;33.94;27.57
10658;BME280;5377;43.276;26.930;2022-09-09T13:03:31;98914.75;;;34.20;27.78
10658;BME280;5377;43.276;26.930;2022-09-09T13:06:09;98913.72;;;33.74;27.99
10658;BME280;5377;43.276;26.930;2022-09-09T13:08:37;98932.78;;;33.91;27.36
10658;BME280;5377;43.276;26.930;2022-09-09T13:11:07;98890.63;;;33.70;27.75
10658;BME280;5377;43.276;26.930;2022-09-09T13:13:39;98915.28;;;34.26;27.49
10658;BME280;5377;43.276;26.930;2022-09-09T13:16:19;98901.31;;;34.61;27.41
10658;BME280;5377;43.276;26.930;2022-09-09T13:18:46;98904.31;;;34.14;27.66
10658;BME280;5377;43.276;26.930;2022-09-09T13:21:13;98890.03;;;34.73;26.86
10658;BME280;5377;43.276;26.930;2022-09-09T13:23:40;98894.44;;;35.20;26.04
10658;BME280;5377;43.276;26.930;2022-09-09T13:29:26;98898.59;;;35.29;26.02
10658;BME280;5377;43.276;26.930;2022-09-09T13:31:53;98892.41;;;35.17;26.41
10658;BME280;5377;43.276;26.930;2022-09-09T13:34:28;98916.88;;;35.50;25.63
10658;BME280;5377;43.276;26.930;2022-09-09T13:36:59;98904.09;;;35.49;25.78
10658;BME280;5377;43.276;26.930;2022-09-09T13:39:28;98893.72;;;35.46;25.99
10658;BME280;5377;43.276;26.930;2022-09-09T13:41:56;98890.59;;;35.77;25.55
10658;BME280;5377;43.276;26.930;2022-09-09T13:44:27;98868.91;;;35.63;25.53
10658;BME280;5377;43.276;26.930;2022-09-09T13:47:03;98879.94;;;35.07;26.23
10658;BME280;5377;43.276;26.930;2022-09-09T13:49:30;98818.09;;;34.33;26.79
10658;BME280;5377;43.276;26.930;2022-09-09T13:52:09;98892.78;;;34.92;27.17
10658;BME280;5377;43.276;26.930;2022-09-09T13:54:36;98894.13;;;35.02;26.92
10658;BME280;5377;43.276;26.930;2022-09-09T13:57:04;98882.50;;;34.96;26.92
10658;BME280;5377;43.276;26.930;2022-09-09T13:59:32;98888.19;;;35.03;26.71
10658;BME280;5377;43.276;26.930;2022-09-09T14:01:59;98885.97;;;34.90;27.11
10658;BME280;5377;43.276;26.930;2022-09-09T14:04:27;98887.22;;;34.92;26.99
10658;BME280;5377;43.276;26.930;2022-09-09T14:06:55;98891.22;;;34.95;26.52
10658;BME280;5377;43.276;26.930;2022-09-09T14:09:22;98889.81;;;34.62;26.88
10658;BME280;5377;43.276;26.930;2022-09-09T14:11:49;98854.94;;;34.68;26.89
10658;BME280;5377;43.276;26.930;2022-09-09T14:14:16;98874.34;;;34.42;27.68
10658;BME280;5377;43.276;26.930;2022-09-09T14:16:44;98874.72;;;34.63;27.43
10658;BME280;5377;43.276;26.930;2022-09-09T14:19:11;98861.44;;;34.34;27.50
10658;BME280;5377;43.276;26.930;2022-09-09T14:21:38;98874.66;;;34.60;27.57
10658;BME280;5377;43.276;26.930;2022-09-09T14:24:05;98863.22;;;34.42;27.27
10658;BME280;5377;43.276;26.930;2022-09-09T14:26:32;98867.72;;;34.31;27.78
10658;BME280;5377;43.276;26.930;2022-09-09T14:28:59;98856.38;;;34.59;27.30
10658;BME280;5377;43.276;26.930;2022-09-09T14:31:27;98857.34;;;34.47;27.51
10658;BME280;5377;43.276;26.930;2022-09-09T14:33:55;98836.28;;;34.46;26.88
10658;BME280;5377;43.276;26.930;2022-09-09T14:36:22;98857.31;;;33.89;28.13
10658;BME280;5377;43.276;26.930;2022-09-09T14:38:50;98850.97;;;33.22;29.24
10658;BME280;5377;43.276;26.930;2022-09-09T14:41:18;98834.91;;;33.82;28.92
10658;BME280;5377;43.276;26.930;2022-09-09T14:43:48;98847.78;;;33.71;28.35
10658;BME280;5377;43.276;26.930;2022-09-09T14:46:16;98839.75;;;33.50;29.20
10658;BME280;5377;43.276;26.930;2022-09-09T14:48:43;98840.50;;;32.84;29.54
10658;BME280;5377;43.276;26.930;2022-09-09T14:51:13;98840.34;;;32.49;30.07
10658;BME280;5377;43.276;26.930;2022-09-09T14:53:41;98854.81;;;32.27;30.70
10658;BME280;5377;43.276;26.930;2022-09-09T14:56:09;98851.88;;;32.51;30.47
10658;BME280;5377;43.276;26.930;2022-09-09T14:58:37;98852.34;;;32.53;30.59
10658;BME280;5377;43.276;26.930;2022-09-09T15:01:05;98853.59;;;32.00;30.99
10658;BME280;5377;43.276;26.930;2022-09-09T15:03:33;98854.91;;;31.78;31.44
10658;BME280;5377;43.276;26.930;2022-09-09T15:06:05;98837.41;;;31.61;31.64
10658;BME280;5377;43.276;26.930;2022-09-09T15:08:35;98850.31;;;31.09;32.14
10658;BME280;5377;43.276;26.930;2022-09-09T15:11:03;98831.19;;;30.91;32.34
10658;BME280;5377;43.276;26.930;2022-09-09T15:13:30;98852.03;;;31.13;32.32
10658;BME280;5377;43.276;26.930;2022-09-09T15:16:03;98858.09;;;30.82;32.98
10658;BME280;5377;43.276;26.930;2022-09-09T15:18:31;98813.00;;;29.91;34.64
10658;BME280;5377;43.276;26.930;2022-09-09T15:20:58;98862.09;;;29.86;36.94
10658;BME280;5377;43.276;26.930;2022-09-09T15:23:27;98864.81;;;29.65;38.09
10658;BME280;5377;43.276;26.930;2022-09-09T15:25:55;98848.06;;;29.40;38.88
10658;BME280;5377;43.276;26.930;2022-09-09T15:28:23;98879.38;;;29.44;39.04
10658;BME280;5377;43.276;26.930;2022-09-09T15:30:50;98852.22;;;29.26;39.24
10658;BME280;5377;43.276;26.930;2022-09-09T15:33:17;98881.31;;;29.14;39.62
10658;BME280;5377;43.276;26.930;2022-09-09T15:35:44;98859.41;;;29.09;39.85
10658;BME280;5377;43.276;26.930;2022-09-09T15:38:11;98890.41;;;29.06;40.55
10658;BME280;5377;43.276;26.930;2022-09-09T15:40:42;98879.00;;;28.87;41.45
10658;BME280;5377;43.276;26.930;2022-09-09T15:43:10;98880.13;;;28.86;41.91
10658;BME280;5377;43.276;26.930;2022-09-09T15:45:38;98806.97;;;28.16;43.04
10658;BME280;5377;43.276;26.930;2022-09-09T15:48:05;98886.94;;;28.80;43.24
10658;BME280;5377;43.276;26.930;2022-09-09T15:50:32;98885.47;;;28.74;43.46
10658;BME280;5377;43.276;26.930;2022-09-09T15:52:59;98872.03;;;28.64;43.57
10658;BME280;5377;43.276;26.930;2022-09-09T15:55:26;98898.63;;;28.68;44.36
10658;BME280;5377;43.276;26.930;2022-09-09T15:57:53;98888.94;;;28.45;45.30
10658;BME280;5377;43.276;26.930;2022-09-09T16:00:21;98909.38;;;28.26;46.15
10658;BME280;5377;43.276;26.930;2022-09-09T16:02:49;98907.72;;;28.17;46.66
10658;BME280;5377;43.276;26.930;2022-09-09T16:05:17;98895.56;;;27.83;47.61
10658;BME280;5377;43.276;26.930;2022-09-09T16:07:44;98916.59;;;27.79;48.10
10658;BME280;5377;43.276;26.930;2022-09-09T16:10:11;98911.75;;;27.85;48.29
10658;BME280;5377;43.276;26.930;2022-09-09T16:12:39;98913.38;;;27.77;48.82
10658;BME280;5377;43.276;26.930;2022-09-09T16:15:06;98915.94;;;27.74;49.08
10658;BME280;5377;43.276;26.930;2022-09-09T16:17:35;98924.75;;;27.53;49.88
10658;BME280;5377;43.276;26.930;2022-09-09T16:20:04;98882.94;;;27.25;50.09
10658;BME280;5377;43.276;26.930;2022-09-09T16:22:34;98917.72;;;27.30;51.09
10658;BME280;5377;43.276;26.930;2022-09-09T16:25:04;98901.66;;;27.15;51.18
10658;BME280;5377;43.276;26.930;2022-09-09T16:27:31;98930.59;;;27.12;51.88
10658;BME280;5377;43.276;26.930;2022-09-09T16:29:59;98929.97;;;27.15;51.79
10658;BME280;5377;43.276;26.930;2022-09-09T16:32:26;98931.25;;;27.09;51.82
10658;BME280;5377;43.276;26.930;2022-09-09T16:34:54;98923.47;;;26.89;51.96
10658;BME280;5377;43.276;26.930;2022-09-09T16:37:26;98922.78;;;26.75;52.42
10658;BME280;5377;43.276;26.930;2022-09-09T16:39:54;98930.88;;;26.80;52.75
10658;BME280;5377;43.276;26.930;2022-09-09T16:42:20;98941.38;;;26.55;53.05
10658;BME280;5377;43.276;26.930;2022-09-09T16:44:47;98841.34;;;25.89;53.41
10658;BME280;5377;43.276;26.930;2022-09-09T16:47:15;98946.22;;;26.36;53.67
10658;BME280;5377;43.276;26.930;2022-09-09T16:49:42;98955.50;;;26.40;53.66
10658;BME280;5377;43.276;26.930;2022-09-09T16:52:10;98924.28;;;26.22;53.23
10658;BME280;5377;43.276;26.930;2022-09-09T16:54:37;98955.59;;;26.35;52.84
10658;BME280;5377;43.276;26.930;2022-09-09T16:57:04;98958.97;;;26.18;53.50
10658;BME280;5377;43.276;26.930;2022-09-09T16:59:32;98917.09;;;25.76;53.42
10658;BME280;5377;43.276;26.930;2022-09-09T17:01:58;98966.13;;;26.05;53.51
10658;BME280;5377;43.276;26.930;2022-09-09T17:04:27;98968.06;;;26.05;53.31
10658;BME280;5377;43.276;26.930;2022-09-09T17:06:55;98975.56;;;25.99;53.20
10658;BME280;5377;43.276;26.930;2022-09-09T17:09:25;98971.72;;;26.00;53.23
10658;BME280;5377;43.276;26.930;2022-09-09T17:11:54;98995.84;;;26.03;53.09
10658;BME280;5377;43.276;26.930;2022-09-09T17:14:22;98992.66;;;25.96;53.09
10658;BME280;5377;43.276;26.930;2022-09-09T17:16:49;98976.38;;;26.00;52.49
10658;BME280;5377;43.276;26.930;2022-09-09T17:19:16;98993.63;;;25.78;52.25
10658;BME280;5377;43.276;26.930;2022-09-09T17:21:43;98983.13;;;25.53;52.39
10658;BME280;5377;43.276;26.930;2022-09-09T17:24:12;98994.78;;;25.44;52.53
10658;BME280;5377;43.276;26.930;2022-09-09T17:26:41;99003.94;;;25.54;52.38
10658;BME280;5377;43.276;26.930;2022-09-09T17:29:08;98998.75;;;25.38;53.02
10658;BME280;5377;43.276;26.930;2022-09-09T17:31:36;99006.22;;;25.19;54.09
10658;BME280;5377;43.276;26.930;2022-09-09T17:34:03;98995.34;;;25.00;55.00
10658;BME280;5377;43.276;26.930;2022-09-09T17:36:32;98993.09;;;24.83;56.12
10658;BME280;5377;43.276;26.930;2022-09-09T17:39:00;99019.56;;;24.74;56.74
10658;BME280;5377;43.276;26.930;2022-09-09T17:41:29;99005.88;;;24.74;57.03
10658;BME280;5377;43.276;26.930;2022-09-09T17:43:58;98983.50;;;24.35;58.15
10658;BME280;5377;43.276;26.930;2022-09-09T17:46:27;98983.63;;;24.43;57.82
10658;BME280;5377;43.276;26.930;2022-09-09T17:48:56;99012.91;;;24.62;57.73
10658;BME280;5377;43.276;26.930;2022-09-09T17:51:24;98997.44;;;24.52;57.17
10658;BME280;5377;43.276;26.930;2022-09-09T17:53:54;99032.84;;;24.67;57.01
10658;BME280;5377;43.276;26.930;2022-09-09T17:56:22;99022.75;;;24.44;57.04
10658;BME280;5377;43.276;26.930;2022-09-09T17:58:50;99013.00;;;24.38;57.31
10658;BME280;5377;43.276;26.930;2022-09-09T18:01:21;98979.00;;;24.01;58.11
10658;BME280;5377;43.276;26.930;2022-09-09T18:04:06;99004.06;;;24.08;58.19
10658;BME280;5377;43.276;26.930;2022-09-09T18:06:41;99042.97;;;24.29;58.95
10658;BME280;5377;43.276;26.930;2022-09-09T18:09:13;99050.16;;;24.20;59.07
10658;BME280;5377;43.276;26.930;2022-09-09T18:11:43;99059.69;;;24.22;59.34
10658;BME280;5377;43.276;26.930;2022-09-09T18:14:14;98879.22;;;22.79;60.46
10658;BME280;5377;43.276;26.930;2022-09-09T18:16:43;98881.72;;;22.47;61.01
10658;BME280;5377;43.276;26.930;2022-09-09T18:19:12;98956.63;;;23.27;60.75
10658;BME280;5377;43.276;26.930;2022-09-09T18:21:43;99017.66;;;23.94;60.77
10658;BME280;5377;43.276;26.930;2022-09-09T18:24:14;99050.72;;;23.98;61.75
10658;BME280;5377;43.276;26.930;2022-09-09T18:26:43;99056.19;;;23.98;62.26
10658;BME280;5377;43.276;26.930;2022-09-09T18:29:11;99058.00;;;23.84;62.78
10658;BME280;5377;43.276;26.930;2022-09-09T18:31:39;99064.22;;;23.89;62.59
10658;BME280;5377;43.276;26.930;2022-09-09T18:34:11;99074.53;;;23.74;63.71
10658;BME280;5377;43.276;26.930;2022-09-09T18:36:42;99070.28;;;23.62;64.63
10658;BME280;5377;43.276;26.930;2022-09-09T18:39:10;99062.66;;;23.59;64.89
10658;BME280;5377;43.276;26.930;2022-09-09T18:41:38;99077.78;;;23.76;64.78
10658;BME280;5377;43.276;26.930;2022-09-09T18:44:07;99070.16;;;23.73;64.92
10658;BME280;5377;43.276;26.930;2022-09-09T18:46:36;99070.56;;;23.61;66.06
10658;BME280;5377;43.276;26.930;2022-09-09T18:49:04;99055.53;;;23.58;66.15
10658;BME280;5377;43.276;26.930;2022-09-09T18:51:33;99054.28;;;23.46;67.01
10658;BME280;5377;43.276;26.930;2022-09-09T18:54:03;99090.41;;;23.72;68.04
10658;BME280;5377;43.276;26.930;2022-09-09T18:56:32;99080.69;;;23.60;69.67
10658;BME280;5377;43.276;26.930;2022-09-09T18:59:01;99079.63;;;23.56;71.04
10658;BME280;5377;43.276;26.930;2022-09-09T19:01:29;99053.28;;;23.37;71.78
10658;BME280;5377;43.276;26.930;2022-09-09T19:03:56;99078.50;;;23.28;73.75
10658;BME280;5377;43.276;26.930;2022-09-09T19:06:25;99063.97;;;23.33;73.78
10658;BME280;5377;43.276;26.930;2022-09-09T19:08:54;99075.25;;;23.26;74.76
10658;BME280;5377;43.276;26.930;2022-09-09T19:11:22;99076.06;;;23.27;75.28
10658;BME280;5377;43.276;26.930;2022-09-09T19:13:51;99071.38;;;23.32;76.32
10658;BME280;5377;43.276;26.930;2022-09-09T19:16:24;99062.28;;;23.37;76.16
10658;BME280;5377;43.276;26.930;2022-09-09T19:18:52;99068.41;;;23.29;77.13
10658;BME280;5377;43.276;26.930;2022-09-09T19:21:20;99062.94;;;23.29;77.55
10658;BME280;5377;43.276;26.930;2022-09-09T19:23:52;99070.31;;;23.28;77.78
10658;BME280;5377;43.276;26.930;2022-09-09T19:26:21;99041.13;;;23.19;77.99
10658;BME280;5377;43.276;26.930;2022-09-09T19:28:48;99067.00;;;23.31;78.66
10658;BME280;5377;43.276;26.930;2022-09-09T19:31:18;99063.41;;;23.36;78.74
10658;BME280;5377;43.276;26.930;2022-09-09T19:33:46;99050.16;;;23.19;79.76
10658;BME280;5377;43.276;26.930;2022-09-09T19:36:15;99062.81;;;23.39;79.81
10658;BME280;5377;43.276;26.930;2022-09-09T19:38:43;99049.16;;;23.39;79.74
10658;BME280;5377;43.276;26.930;2022-09-09T19:41:13;99054.91;;;23.38;79.95
10658;BME280;5377;43.276;26.930;2022-09-09T19:43:41;99057.69;;;23.32;81.33
10658;BME280;5377;43.276;26.930;2022-09-09T19:46:10;99050.38;;;23.23;83.09
10658;BME280;5377;43.276;26.930;2022-09-09T19:48:40;99035.19;;;23.12;83.45
10658;BME280;5377;43.276;26.930;2022-09-09T19:51:09;99047.53;;;23.38;83.05
10658;BME280;5377;43.276;26.930;2022-09-09T19:53:38;99040.91;;;23.44;83.28
10658;BME280;5377;43.276;26.930;2022-09-09T19:56:06;99048.09;;;23.35;84.71
10658;BME280;5377;43.276;26.930;2022-09-09T19:58:34;99047.66;;;23.23;86.25
10658;BME280;5377;43.276;26.930;2022-09-09T20:01:07;99049.38;;;23.14;88.29
10658;BME280;5377;43.276;26.930;2022-09-09T20:03:36;99048.28;;;23.15;88.36
10658;BME280;5377;43.276;26.930;2022-09-09T20:06:04;99044.50;;;23.11;89.36
10658;BME280;5377;43.276;26.930;2022-09-09T20:08:31;99052.16;;;23.09;89.98
10658;BME280;5377;43.276;26.930;2022-09-09T20:10:58;99050.25;;;23.09;90.65
10658;BME280;5377;43.276;26.930;2022-09-09T20:13:27;99043.97;;;23.09;90.81
10658;BME280;5377;43.276;26.930;2022-09-09T20:15:58;99057.53;;;23.19;91.55
10658;BME280;5377;43.276;26.930;2022-09-09T20:18:28;99060.66;;;23.07;92.94
10658;BME280;5377;43.276;26.930;2022-09-09T20:20:57;99052.03;;;22.95;94.64
10658;BME280;5377;43.276;26.930;2022-09-09T20:23:25;98983.19;;;22.59;94.10
10658;BME280;5377;43.276;26.930;2022-09-09T20:25:52;99059.88;;;23.01;94.96
10658;BME280;5377;43.276;26.930;2022-09-09T20:28:19;99045.50;;;22.91;96.06
10658;BME280;5377;43.276;26.930;2022-09-09T20:30:47;99052.03;;;22.95;96.06
10658;BME280;5377;43.276;26.930;2022-09-09T20:33:15;99027.25;;;22.76;96.92
10658;BME280;5377;43.276;26.930;2022-09-09T20:35:44;99059.22;;;22.76;99.20
10658;BME280;5377;43.276;26.930;2022-09-09T20:38:11;99056.72;;;22.79;99.23
10658;BME280;5377;43.276;26.930;2022-09-09T20:40:38;99051.09;;;22.65;100.00
10658;BME280;5377;43.276;26.930;2022-09-09T20:43:06;99047.03;;;22.63;100.00
10658;BME280;5377;43.276;26.930;2022-09-09T20:45:37;99058.78;;;22.63;100.00
10658;BME280;5377;43.276;26.930;2022-09-09T20:48:04;99057.44;;;22.61;100.00
10658;BME280;5377;43.276;26.930;2022-09-09T20:50:33;99058.19;;;22.66;100.00
10658;BME280;5377;43.276;26.930;2022-09-09T20:53:02;99062.06;;;22.60;100.00
10658;BME280;5377;43.276;26.930;2022-09-09T20:55:29;99056.00;;;22.68;100.00
10658;BME280;5377;43.276;26.930;2022-09-09T20:57:56;99059.09;;;22.57;100.00
10658;BME280;5377;43.276;26.930;2022-09-09T21:00:24;99035.72;;;22.35;100.00
10658;BME280;5377;43.276;26.930;2022-09-09T21:02:51;99059.53;;;22.25;100.00
10658;BME280;5377;43.276;26.930;2022-09-09T21:05:18;98978.66;;;21.90;100.00
10658;BME280;5377;43.276;26.930;2022-09-09T21:07:45;99060.84;;;22.37;100.00
10658;BME280;5377;43.276;26.930;2022-09-09T21:10:13;99057.53;;;22.40;100.00
10658;BME280;5377;43.276;26.930;2022-09-09T21:12:40;99048.88;;;22.28;100.00
10658;BME280;5377;43.276;26.930;2022-09-09T21:15:07;99053.44;;;22.43;100.00
10658;BME280;5377;43.276;26.930;2022-09-09T21:17:34;99049.31;;;22.46;100.00
10658;BME280;5377;43.276;26.930;2022-09-09T21:20:05;99009.66;;;22.14;100.00
10658;BME280;5377;43.276;26.930;2022-09-09T21:22:33;99034.13;;;22.29;100.00
10658;BME280;5377;43.276;26.930;2022-09-09T21:25:00;99052.06;;;22.40;100.00
10658;BME280;5377;43.276;26.930;2022-09-09T21:27:28;99051.56;;;22.33;100.00
10658;BME280;5377;43.276;26.930;2022-09-09T21:29:55;99042.59;;;22.28;100.00
10658;BME280;5377;43.276;26.930;2022-09-09T21:32:22;99051.00;;;22.36;100.00
10658;BME280;5377;43.276;26.930;2022-09-09T21:34:48;99035.78;;;22.30;100.00
10658;BME280;5377;43.276;26.930;2022-09-09T21:37:15;99046.69;;;22.30;100.00
10658;BME280;5377;43.276;26.930;2022-09-09T21:39:42;99077.19;;;22.37;100.00
10658;BME280;5377;43.276;26.930;2022-09-09T21:42:09;99040.09;;;22.36;100.00
10658;BME280;5377;43.276;26.930;2022-09-09T21:44:39;98987.84;;;22.09;100.00
10658;BME280;5377;43.276;26.930;2022-09-09T21:47:05;99042.50;;;22.43;100.00
10658;BME280;5377;43.276;26.930;2022-09-09T21:49:32;99037.41;;;22.31;100.00
10658;BME280;5377;43.276;26.930;2022-09-09T21:51:59;99050.50;;;22.29;100.00
10658;BME280;5377;43.276;26.930;2022-09-09T21:54:28;99081.13;;;22.21;100.00
10658;BME280;5377;43.276;26.930;2022-09-09T21:56:56;99054.03;;;22.35;100.00
10658;BME280;5377;43.276;26.930;2022-09-09T21:59:25;99041.72;;;22.37;100.00
10658;BME280;5377;43.276;26.930;2022-09-09T22:01:53;99030.63;;;22.19;100.00
10658;BME280;5377;43.276;26.930;2022-09-09T22:04:20;99047.81;;;22.24;100.00